Airfield :
LOGIN :

Register | Disclaimer

   EN    FR    IT 

 










Legend :    VFR   Marginal VFR   IFR   Intensive IFR   Very Intensive IFR
Visi :
Ceiling :
>= 8 km
>= 3000ft
5 to 8 km
1000 to 3000 ft
1500m to 5 km
500 to 1000 ft
800 to 1500m
200 to 500 ft
< 800m
< 200 ft
Symbols :   Thunderstorms  Fog  Heavy snow  Heavy precipitations  Wind > 20 kt
SIGMETs :     Misc.  Thunderstorms  Icing  Turbulence  Mountain Waves  Volcanic Ashes






- Airport Elevation : 26 ft
- IATA code : SYY


EGPO - Stornoway

CURRENT METAR :
  • 181820Z 34009KT 9999 SCT038 11/05 Q1022

EXPIRED METARs :
  • 181750Z 34010KT 9999 BKN038 10/05 Q1022
  • 181720Z 35007KT 320V020 9999 BKN031 11/04 Q1022
  • 181650Z 34010KT 9999 FEW018 BKN029 11/05 Q1022
  • 181620Z 34010KT 9999 FEW018 BKN028 11/05 Q1022
  • 181550Z 35010KT 9999 FEW018 BKN030 11/05 Q1021
  • 181520Z 34010KT 9999 FEW018 BKN028 12/06 Q1021
  • 181450Z 02010KT 9999 FEW016 BKN024 11/07 Q1021
  • 181420Z 01010KT 9999 VCSH SCT016 BKN027 11/07 Q1021

TAF TAF EGPO
Valid from the 18 at 18:00 until the 19 at 03:00 UTC


181659Z 1818/1903 34010KT 9999 SCT025
BECMG 1819/1822 28005KT
ATIS : +44 1851 707 444



MET'MAP, your aeronautical weather chart ! - Copyright ORBIFLY December 2007 - Disclaimer

ORBIFLY MET'MAP TEAM :

Programming & Development : Alexandra Zaïnal
Original concept : Baudouin d'Aumeries
Technical & hardware support : Manuel Goepfert
Assistance : Marc-Olivier Méhu




SOURCES & CREDITS :

   NOAA